Time;durP1;ratioP1;P1;durP2;ratioP2;P2;SDS_P1;SDS_P2;PMS_P1;PMS_P2;Temp;Humidity;BMP_temperature;BMP_pressure;BME280_temperature;BME280_humidity;BME280_pressure;Samples;Min_cycle;Max_cycle;Signal;HPM_P1;HPM_P2
2021/05/12 00:00:36;;;;;;;26.38;24.98;;;;;;;8.23;100.00;100820.41;5027275;28;20046;-83
2021/05/12 00:03:03;;;;;;;25.92;24.52;;;;;;;8.13;100.00;100823.31;5020520;28;20388;-83
2021/05/12 00:05:30;;;;;;;25.98;24.58;;;;;;;7.94;100.00;100819.47;5027126;28;20052;-83
2021/05/12 00:07:57;;;;;;;30.77;29.38;;;;;;;7.70;100.00;100814.50;5031187;28;20045;-84
2021/05/12 00:10:23;;;;;;;32.33;30.73;;;;;;;7.86;100.00;100810.81;5023235;28;20053;-83
2021/05/12 00:12:50;;;;;;;29.90;28.40;;;;;;;7.69;100.00;100818.97;5028187;28;20057;-83
2021/05/12 00:15:19;;;;;;;30.60;29.10;;;;;;;7.25;100.00;100811.03;5032212;28;20217;-83
2021/05/12 00:17:48;;;;;;;28.35;27.05;;;;;;;6.94;100.00;100803.28;5032325;28;20052;-83
2021/05/12 00:20:20;;;;;;;29.10;27.50;;;;;;;6.50;100.00;100806.59;5039160;28;20049;-83
2021/05/12 00:22:51;;;;;;;29.05;27.45;;;;;;;6.67;100.00;100802.03;5024534;28;20049;-83
2021/05/12 00:25:18;;;;;;;29.00;27.60;;;;;;;6.74;100.00;100790.56;5025528;28;20107;-83
2021/05/12 00:27:45;;;;;;;29.98;28.48;;;;;;;7.08;100.00;100791.88;5037145;28;20049;-83
2021/05/12 00:30:13;;;;;;;30.23;28.63;;;;;;;7.23;100.00;100792.75;5037927;28;20069;-83
2021/05/12 00:32:41;;;;;;;29.40;27.88;;;;;;;7.12;100.00;100782.63;5028356;28;20313;-83
2021/05/12 00:35:09;;;;;;;30.67;29.13;;;;;;;6.99;100.00;100785.06;5027588;28;20410;-83
2021/05/12 00:37:35;;;;;;;29.30;27.83;;;;;;;7.13;100.00;100780.78;5041647;28;20140;-83
2021/05/12 00:40:01;;;;;;;31.00;29.23;;;;;;;7.42;100.00;100782.63;5024314;28;20072;-83
2021/05/12 00:42:30;;;;;;;31.52;29.92;;;;;;;7.04;100.00;100780.88;5024273;28;20052;-83
2021/05/12 00:44:57;;;;;;;31.48;29.38;;;;;;;7.11;100.00;100779.16;5054074;28;20067;-83
2021/05/12 00:47:28;;;;;;;30.58;28.98;;;;;;;7.07;100.00;100775.22;5046602;28;20053;-84
2021/05/12 00:49:55;;;;;;;30.65;29.05;;;;;;;6.72;100.00;100776.75;5027545;28;20058;-83
2021/05/12 00:52:21;;;;;;;31.17;29.67;;;;;;;6.61;100.00;100759.50;5026408;28;20059;-83
2021/05/12 00:54:48;;;;;;;28.83;27.05;;;;;;;6.55;100.00;100757.59;5023579;28;20041;-83
2021/05/12 00:57:14;;;;;;;33.55;31.85;;;;;;;6.00;100.00;100761.31;5021636;28;20045;-83
2021/05/12 00:59:43;;;;;;;35.35;33.65;;;;;;;6.37;100.00;100757.09;5022691;28;20049;-83
2021/05/12 01:02:10;;;;;;;30.73;29.17;;;;;;;6.58;100.00;100749.31;5038174;28;20128;-83
2021/05/12 01:04:38;;;;;;;29.52;27.80;;;;;;;6.46;100.00;100744.66;5042553;28;20049;-83
2021/05/12 01:07:05;;;;;;;36.28;34.58;;;;;;;5.92;100.00;100733.13;5040865;28;20075;-83
2021/05/12 01:09:31;;;;;;;34.85;33.15;;;;;;;5.77;100.00;100740.16;5045288;28;20110;-83
2021/05/12 01:11:58;;;;;;;34.03;32.42;;;;;;;6.14;100.00;100743.88;5031768;28;20053;-83
2021/05/12 01:14:25;;;;;;;28.67;27.08;;;;;;;6.03;100.00;100737.22;5023002;28;20489;-84
2021/05/12 01:16:52;;;;;;;30.23;28.48;;;;;;;5.60;100.00;100738.59;5020807;28;20050;-83
2021/05/12 01:19:19;;;;;;;28.85;27.35;;;;;;;5.68;100.00;100733.28;5024102;28;20065;-83
2021/05/12 01:21:46;;;;;;;28.25;26.95;;;;;;;5.72;100.00;100732.78;5043841;28;20076;-83
2021/05/12 01:24:12;;;;;;;29.98;28.30;;;;;;;6.07;100.00;100727.94;5027709;28;20041;-83
2021/05/12 01:26:39;;;;;;;28.23;26.83;;;;;;;6.27;100.00;100738.88;5015085;28;20046;-83
2021/05/12 01:29:06;;;;;;;30.40;28.88;;;;;;;6.53;100.00;100720.00;5025397;28;20053;-83
2021/05/12 01:31:35;;;;;;;30.30;28.90;;;;;;;6.71;100.00;100724.13;5043815;28;20041;-83
2021/05/12 01:34:03;;;;;;;28.30;26.80;;;;;;;6.78;100.00;100723.22;5039206;28;20057;-83
2021/05/12 01:36:31;;;;;;;27.90;26.48;;;;;;;6.98;100.00;100720.84;5016310;28;20061;-83
2021/05/12 01:38:59;;;;;;;30.48;28.98;;;;;;;7.11;100.00;100715.78;5026104;28;20053;-83
2021/05/12 01:41:28;;;;;;;28.83;27.45;;;;;;;6.86;100.00;100722.31;5016977;28;20061;-83
2021/05/12 01:43:55;;;;;;;27.85;26.55;;;;;;;7.08;100.00;100718.78;5020565;28;20045;-83
2021/05/12 01:46:23;;;;;;;28.05;26.65;;;;;;;7.07;100.00;100705.75;5043445;28;20102;-84
2021/05/12 01:48:50;;;;;;;29.23;27.73;;;;;;;7.08;100.00;100707.38;5023263;28;20053;-83
2021/05/12 01:51:17;;;;;;;26.70;25.13;;;;;;;7.08;100.00;100704.72;5026452;28;20041;-83
2021/05/12 01:53:43;;;;;;;30.50;29.00;;;;;;;7.22;100.00;100701.25;5036843;28;20182;-83
2021/05/12 01:56:11;;;;;;;28.23;26.77;;;;;;;7.29;100.00;100698.69;5042288;28;20111;-83
2021/05/12 01:58:37;;;;;;;27.70;26.20;;;;;;;7.31;100.00;100696.69;5031294;28;20122;-84
2021/05/12 02:01:07;;;;;;;27.48;26.08;;;;;;;7.23;100.00;100679.16;5042747;28;20541;-83
2021/05/12 02:03:33;;;;;;;29.30;27.80;;;;;;;7.01;100.00;100690.63;5055551;28;20053;-83
2021/05/12 02:06:00;;;;;;;29.25;27.80;;;;;;;6.44;100.00;100689.41;5036160;28;20447;-83
2021/05/12 02:08:28;;;;;;;28.48;27.02;;;;;;;6.26;100.00;100691.53;5033739;28;20068;-83
2021/05/12 02:10:57;;;;;;;30.13;28.52;;;;;;;5.98;100.00;100689.47;5039039;28;20064;-83
2021/05/12 02:13:24;;;;;;;31.25;29.77;;;;;;;5.27;100.00;100696.63;5038192;28;20056;-83
2021/05/12 02:15:51;;;;;;;28.75;27.25;;;;;;;5.17;100.00;100693.34;5039464;28;20132;-83
2021/05/12 02:18:18;;;;;;;29.00;27.50;;;;;;;5.32;100.00;100701.34;5045644;28;20041;-83
2021/05/12 02:20:45;;;;;;;29.45;27.65;;;;;;;5.13;100.00;100686.81;5028167;28;20046;-83
2021/05/12 02:23:14;;;;;;;28.48;27.08;;;;;;;4.88;100.00;100694.78;5026700;28;20049;-83
2021/05/12 02:25:42;;;;;;;31.67;29.92;;;;;;;5.04;100.00;100688.63;5027003;28;20158;-83
2021/05/12 02:28:09;;;;;;;30.63;29.20;;;;;;;5.37;100.00;100691.13;5030454;28;20049;-83
2021/05/12 02:30:38;;;;;;;30.40;28.75;;;;;;;5.62;100.00;100686.53;5048485;28;20076;-83
2021/05/12 02:33:04;;;;;;;29.08;27.33;;;;;;;5.39;100.00;100683.91;5043127;28;20485;-83
2021/05/12 02:35:31;;;;;;;32.92;30.92;;;;;;;5.26;100.00;100681.78;5043920;28;20052;-83
2021/05/12 02:37:57;;;;;;;30.98;29.35;;;;;;;4.68;100.00;100690.88;5021253;28;20061;-83
2021/05/12 02:40:24;;;;;;;33.08;31.48;;;;;;;5.06;100.00;100686.66;5027703;28;20054;-83
2021/05/12 02:42:52;;;;;;;34.25;32.65;;;;;;;5.27;100.00;100686.09;5016480;28;20438;-83
2021/05/12 02:45:19;;;;;;;29.10;27.67;;;;;;;5.54;100.00;100679.53;5026309;28;20111;-83
2021/05/12 02:47:57;;;;;;;30.88;29.23;;;;;;;5.70;100.00;100679.41;5026966;28;20049;-82
2021/05/12 02:50:25;;;;;;;28.08;26.55;;;;;;;6.19;100.00;100676.44;5022874;28;20544;-83
2021/05/12 02:52:52;;;;;;;26.27;25.00;;;;;;;6.11;100.00;100665.97;5039474;28;20050;-83
2021/05/12 02:55:19;;;;;;;28.10;26.70;;;;;;;6.02;100.00;100664.41;5043911;28;20063;-83
2021/05/12 02:57:45;;;;;;;28.63;27.33;;;;;;;5.68;100.00;100664.78;5029461;28;20050;-83
2021/05/12 03:00:13;;;;;;;34.47;32.83;;;;;;;5.85;100.00;100657.56;5031860;28;20536;-83
2021/05/12 03:02:40;;;;;;;27.65;26.35;;;;;;;5.68;100.00;100670.84;5042030;28;20080;-83
2021/05/12 03:05:08;;;;;;;29.80;28.30;;;;;;;5.35;100.00;100670.22;5026574;28;20160;-83
2021/05/12 03:07:35;;;;;;;29.52;27.70;;;;;;;5.51;100.00;100666.69;5026379;28;20053;-83
2021/05/12 03:10:01;;;;;;;35.42;33.63;;;;;;;5.73;100.00;100665.88;5044682;28;20057;-83
2021/05/12 03:12:27;;;;;;;33.85;32.35;;;;;;;5.49;100.00;100668.69;5031287;28;20041;-83
2021/05/12 03:14:54;;;;;;;41.25;39.05;;;;;;;5.30;100.00;100669.94;5022213;28;20038;-83
2021/05/12 03:17:20;;;;;;;41.03;38.75;;;;;;;5.36;100.00;100660.53;5023404;28;20076;-83
2021/05/12 03:19:46;;;;;;;53.50;49.63;;;;;;;5.26;100.00;100663.34;5024191;28;20115;-83
2021/05/12 03:22:14;;;;;;;58.58;54.38;;;;;;;5.54;100.00;100660.25;5029553;28;20060;-83
2021/05/12 03:24:40;;;;;;;65.88;61.03;;;;;;;5.59;100.00;100665.81;5029135;28;20108;-84
2021/05/12 03:27:07;;;;;;;62.65;58.05;;;;;;;5.61;100.00;100662.00;5017939;28;20548;-83
2021/05/12 03:29:33;;;;;;;64.20;59.80;;;;;;;5.93;100.00;100662.78;5024086;28;20049;-83
2021/05/12 03:32:00;;;;;;;61.92;57.63;;;;;;;6.01;100.00;100648.75;5015732;28;20054;-83
2021/05/12 03:34:26;;;;;;;58.28;53.75;;;;;;;6.01;100.00;100649.56;5024084;28;20060;-83
2021/05/12 03:36:52;;;;;;;58.08;53.58;;;;;;;5.87;100.00;100642.38;5044202;28;20049;-83
2021/05/12 03:39:19;;;;;;;52.97;49.15;;;;;;;5.77;100.00;100645.25;5022143;28;20104;-84
2021/05/12 03:41:46;;;;;;;50.92;47.42;;;;;;;5.74;100.00;100642.97;5033400;28;20479;-84
2021/05/12 03:44:12;;;;;;;52.42;48.65;;;;;;;6.13;100.00;100642.03;5044799;28;20049;-83
2021/05/12 03:46:39;;;;;;;48.38;45.00;;;;;;;6.14;100.00;100636.59;5038027;28;20406;-83
2021/05/12 03:49:05;;;;;;;51.35;47.75;;;;;;;6.22;100.00;100637.53;5021839;28;20057;-83
2021/05/12 03:51:32;;;;;;;48.22;44.92;;;;;;;6.23;100.00;100637.31;5039165;28;20041;-82
2021/05/12 03:53:58;;;;;;;54.08;50.47;;;;;;;6.16;100.00;100637.22;5041275;28;20053;-83
2021/05/12 03:56:25;;;;;;;65.57;59.88;;;;;;;6.63;100.00;100637.94;5036812;28;20107;-83
2021/05/12 03:58:51;;;;;;;68.93;63.03;;;;;;;6.64;100.00;100636.94;5044738;28;20092;-83
2021/05/12 04:01:18;;;;;;;62.35;56.63;;;;;;;6.63;100.00;100633.47;5025012;28;20054;-83
2021/05/12 04:03:44;;;;;;;67.10;61.30;;;;;;;6.92;100.00;100637.09;5026832;28;20052;-82
2021/05/12 04:06:10;;;;;;;58.28;53.08;;;;;;;7.04;100.00;100624.25;5035862;28;20083;-83
2021/05/12 04:08:36;;;;;;;57.53;52.45;;;;;;;6.98;100.00;100632.91;5041245;28;20071;-83
2021/05/12 04:11:03;;;;;;;65.68;59.88;;;;;;;7.22;100.00;100619.38;5039353;28;20056;-83
2021/05/12 04:13:30;;;;;;;73.07;67.05;;;;;;;7.22;100.00;100618.56;5022528;28;20371;-84
2021/05/12 04:15:56;;;;;;;69.50;63.50;;;;;;;7.28;100.00;100613.34;5021055;28;20485;-83
2021/05/12 04:18:22;;;;;;;70.13;64.63;;;;;;;7.33;100.00;100608.31;5034965;28;20107;-83
2021/05/12 04:20:49;;;;;;;57.92;52.80;;;;;;;7.42;100.00;100600.28;5029732;28;20050;-83
2021/05/12 04:23:15;;;;;;;60.10;54.72;;;;;;;7.49;100.00;100609.09;5020418;28;20100;-83
2021/05/12 04:25:41;;;;;;;26.80;25.42;;;;;;;7.68;100.00;100599.72;5031079;28;20053;-83
2021/05/12 04:28:08;;;;;;;28.15;26.73;;;;;;;7.82;100.00;100598.00;5026460;28;20053;-83
2021/05/12 04:30:36;;;;;;;26.20;24.90;;;;;;;7.88;100.00;100606.00;5032180;28;20060;-84
2021/05/12 04:33:04;;;;;;;27.60;26.25;;;;;;;8.26;100.00;100606.50;5039958;28;20587;-83
2021/05/12 04:35:30;;;;;;;27.40;25.80;;;;;;;8.67;100.00;100607.56;5028264;28;20057;-83
2021/05/12 04:37:57;;;;;;;26.13;24.80;;;;;;;8.85;100.00;100602.56;5024602;28;20413;-83
2021/05/12 04:40:24;;;;;;;26.67;25.17;;;;;;;9.15;100.00;100603.09;5021980;28;20046;-84
2021/05/12 04:42:51;;;;;;;29.27;27.73;;;;;;;9.18;100.00;100585.97;5017807;28;20053;-83
2021/05/12 04:45:19;;;;;;;32.38;30.75;;;;;;;9.38;100.00;100588.69;5019652;28;20054;-83
2021/05/12 04:47:55;;;;;;;31.48;29.98;;;;;;;9.58;100.00;100592.16;5024355;28;20049;-83
2021/05/12 04:50:23;;;;;;;29.83;28.30;;;;;;;9.74;100.00;100582.19;5028406;28;20057;-83
2021/05/12 04:52:52;;;;;;;28.42;26.42;;;;;;;9.90;100.00;100591.59;5042047;28;20045;-83
2021/05/12 04:55:19;;;;;;;24.23;23.02;;;;;;;10.06;100.00;100584.00;5034483;28;20060;-83
2021/05/12 04:57:45;;;;;;;26.55;25.17;;;;;;;10.32;100.00;100596.47;5023036;28;20534;-83
2021/05/12 05:00:14;;;;;;;24.02;22.92;;;;;;;10.27;100.00;100590.97;5022489;28;20045;-83
2021/05/12 05:02:41;;;;;;;25.48;24.17;;;;;;;10.36;100.00;100602.19;5024164;28;20516;-83
2021/05/12 05:05:11;;;;;;;23.58;22.38;;;;;;;10.59;100.00;100593.78;5034926;28;20099;-83
2021/05/12 05:07:38;;;;;;;25.00;23.67;;;;;;;10.65;100.00;100600.06;5041599;28;20056;-83
2021/05/12 05:10:06;;;;;;;25.92;24.65;;;;;;;10.92;100.00;100591.00;5041796;28;20061;-83
2021/05/12 05:12:32;;;;;;;26.30;25.10;;;;;;;10.97;100.00;100598.31;5023587;28;20041;-84
2021/05/12 05:14:59;;;;;;;29.45;28.05;;;;;;;11.11;100.00;100588.47;5029114;28;20045;-83
2021/05/12 05:17:27;;;;;;;26.10;24.63;;;;;;;11.29;100.00;100583.25;5027460;28;20049;-83
2021/05/12 05:19:53;;;;;;;28.40;27.17;;;;;;;11.20;100.00;100589.84;5028595;28;20061;-83
2021/05/12 05:22:21;;;;;;;30.83;29.33;;;;;;;11.44;100.00;100578.44;5029057;28;20071;-83
2021/05/12 05:24:48;;;;;;;28.23;26.63;;;;;;;11.73;100.00;100576.19;5026863;28;20057;-83
2021/05/12 05:27:15;;;;;;;27.05;25.80;;;;;;;11.77;100.00;100582.72;5023149;28;20045;-84
2021/05/12 05:29:41;;;;;;;25.40;24.20;;;;;;;11.83;100.00;100579.19;5042880;28;20142;-83
2021/05/12 05:32:08;;;;;;;25.13;23.98;;;;;;;12.05;100.00;100568.16;5025769;28;20055;-84
2021/05/12 05:34:34;;;;;;;28.75;27.45;;;;;;;12.15;100.00;100579.13;5020294;28;20057;-83
2021/05/12 05:37:00;;;;;;;27.17;25.70;;;;;;;12.24;99.01;100575.16;5025299;28;20259;-84
2021/05/12 05:39:35;;;;;;;25.40;24.13;;;;;;;12.42;97.05;100570.88;5030222;28;20453;-84
2021/05/12 05:42:01;;;;;;;29.10;27.70;;;;;;;12.65;93.65;100565.69;5027608;28;20057;-83
2021/05/12 05:44:28;;;;;;;28.33;27.02;;;;;;;12.93;93.44;100569.66;5029313;28;20057;-84
2021/05/12 05:46:55;;;;;;;26.38;25.05;;;;;;;13.31;87.62;100569.34;5025854;28;20137;-83
2021/05/12 05:49:21;;;;;;;26.35;24.83;;;;;;;13.37;92.54;100576.44;5026586;28;20125;-84
2021/05/12 05:51:48;;;;;;;27.50;26.20;;;;;;;13.39;85.86;100571.72;5035924;28;20081;-84
2021/05/12 05:54:14;;;;;;;24.45;23.35;;;;;;;13.43;83.61;100567.53;5030132;28;20052;-84
2021/05/12 05:56:41;;;;;;;25.55;24.45;;;;;;;13.58;81.82;100559.09;5026928;28;20041;-84
2021/05/12 05:59:08;;;;;;;25.30;24.20;;;;;;;13.91;81.33;100555.09;5026828;28;20049;-83
2021/05/12 06:01:34;;;;;;;24.48;23.00;;;;;;;14.28;70.39;100565.53;5029374;28;20532;-83
2021/05/12 06:04:01;;;;;;;23.42;22.33;;;;;;;14.72;84.18;100563.28;5033408;28;20045;-78
2021/05/12 06:06:27;;;;;;;26.33;25.00;;;;;;;14.71;73.92;100559.81;5018445;28;20085;-76
2021/05/12 06:08:54;;;;;;;25.10;23.90;;;;;;;14.63;76.97;100552.13;5024181;28;20459;-76
2021/05/12 06:11:20;;;;;;;24.73;23.42;;;;;;;14.83;66.50;100554.41;5029551;28;20064;-76
2021/05/12 06:13:49;;;;;;;25.98;24.67;;;;;;;14.97;54.84;100555.75;5023645;28;20050;-77
2021/05/12 06:16:17;;;;;;;25.00;23.80;;;;;;;15.00;51.39;100560.59;5027099;28;20128;-77
2021/05/12 06:18:44;;;;;;;24.67;23.48;;;;;;;15.28;61.30;100556.28;5020206;28;20507;-77
2021/05/12 06:21:10;;;;;;;26.27;24.75;;;;;;;15.40;64.26;100554.41;5024123;28;20120;-77
2021/05/12 06:23:37;;;;;;;24.98;23.77;;;;;;;15.69;69.15;100551.66;5034477;28;20053;-77
2021/05/12 06:26:04;;;;;;;22.73;21.63;;;;;;;16.22;94.07;100545.78;5040380;28;20049;-77
2021/05/12 06:28:31;;;;;;;24.02;22.83;;;;;;;16.07;65.95;100536.69;5023054;28;20069;-77
2021/05/12 06:30:58;;;;;;;24.55;23.10;;;;;;;16.07;49.20;100542.88;5028178;28;20068;-77
2021/05/12 06:33:29;;;;;;;22.90;21.90;;;;;;;15.89;47.73;100538.59;5038536;28;20076;-77
2021/05/12 06:35:55;;;;;;;23.52;22.20;;;;;;;16.10;46.90;100530.88;5032644;28;20132;-77
2021/05/12 06:38:21;;;;;;;22.83;21.83;;;;;;;16.26;53.31;100530.00;5029227;28;20046;-77
2021/05/12 06:40:47;;;;;;;23.90;22.70;;;;;;;16.52;76.94;100522.28;5042342;28;20493;-77
2021/05/12 06:43:14;;;;;;;22.73;21.33;;;;;;;16.88;63.52;100524.34;5036365;28;20053;-77
2021/05/12 06:45:40;;;;;;;22.95;21.42;;;;;;;16.77;50.44;100524.50;5038935;28;20104;-77
2021/05/12 06:48:08;;;;;;;23.30;22.05;;;;;;;17.02;46.80;100524.75;5028520;28;20493;-76
2021/05/12 06:50:35;;;;;;;22.60;21.60;;;;;;;17.12;45.09;100514.09;5024042;28;20443;-76
2021/05/12 06:53:01;;;;;;;22.25;21.25;;;;;;;17.45;50.93;100509.56;5023956;28;20041;-77
2021/05/12 06:55:28;;;;;;;23.40;22.30;;;;;;;17.62;43.29;100512.13;5022905;28;20553;-76
2021/05/12 06:57:54;;;;;;;23.45;22.08;;;;;;;17.31;42.11;100511.06;5021168;28;20053;-77
2021/05/12 07:00:21;;;;;;;23.85;22.60;;;;;;;17.57;37.16;100509.38;5026635;28;20474;-76
2021/05/12 07:02:48;;;;;;;23.15;21.85;;;;;;;17.82;38.21;100506.09;5030100;28;20060;-76
2021/05/12 07:05:16;;;;;;;22.77;21.58;;;;;;;18.16;36.40;100501.19;5023560;28;20049;-77
2021/05/12 07:07:42;;;;;;;23.13;21.73;;;;;;;18.39;33.68;100504.50;5021531;28;20046;-76
2021/05/12 07:10:10;;;;;;;23.02;21.65;;;;;;;18.41;36.09;100505.88;5032818;28;20513;-77
2021/05/12 07:12:37;;;;;;;22.77;21.48;;;;;;;18.56;32.89;100496.25;5028071;28;20107;-76
2021/05/12 07:15:03;;;;;;;22.83;21.63;;;;;;;18.74;32.63;100496.59;5020369;28;20053;-77
2021/05/12 07:17:29;;;;;;;23.25;22.08;;;;;;;18.95;30.58;100497.44;5023717;28;20054;-76
2021/05/12 07:19:56;;;;;;;21.45;20.17;;;;;;;19.01;30.12;100494.78;5028584;28;20056;-76
2021/05/12 07:22:24;;;;;;;21.85;20.60;;;;;;;19.01;31.08;100484.00;5041590;28;20186;-77
2021/05/12 07:24:50;;;;;;;22.33;20.77;;;;;;;19.13;30.03;100490.75;5028290;28;20053;-76
2021/05/12 07:27:17;;;;;;;22.13;21.02;;;;;;;19.25;39.34;100485.09;5018586;28;20050;-77
2021/05/12 07:29:44;;;;;;;21.67;20.42;;;;;;;19.61;32.89;100483.19;5021038;28;20461;-77
2021/05/12 07:32:10;;;;;;;20.48;19.48;;;;;;;19.42;29.01;100482.13;5026847;28;20479;-77
2021/05/12 07:34:37;;;;;;;24.42;23.23;;;;;;;19.59;25.85;100476.47;5026030;28;20479;-76
2021/05/12 07:37:03;;;;;;;22.77;21.65;;;;;;;19.74;28.88;100476.47;5028269;28;20470;-77
2021/05/12 07:39:31;;;;;;;23.50;22.40;;;;;;;19.90;27.94;100467.25;5039729;28;20054;-76
2021/05/12 07:42:02;;;;;;;22.77;21.42;;;;;;;20.09;27.09;100467.47;5018289;28;20111;-77
2021/05/12 07:44:29;;;;;;;23.95;22.52;;;;;;;20.02;24.57;100469.63;5022860;28;20076;-77
2021/05/12 07:46:55;;;;;;;22.73;21.63;;;;;;;20.10;29.46;100461.00;5023180;28;20124;-77
2021/05/12 07:49:22;;;;;;;22.38;21.38;;;;;;;20.29;27.36;100460.38;5021783;28;20068;-77
2021/05/12 07:51:48;;;;;;;21.75;20.75;;;;;;;20.38;28.43;100463.31;5023148;28;20052;-77
2021/05/12 07:54:14;;;;;;;22.52;21.42;;;;;;;20.32;29.81;100460.63;5018587;28;20080;-77
2021/05/12 07:56:41;;;;;;;21.70;20.60;;;;;;;20.29;28.06;100461.19;5029181;28;20049;-76
2021/05/12 07:59:08;;;;;;;21.38;20.27;;;;;;;20.44;27.09;100446.00;5040456;28;20045;-76
2021/05/12 08:01:38;;;;;;;20.30;19.30;;;;;;;20.36;27.75;100450.91;5022209;28;20050;-77
2021/05/12 08:04:05;;;;;;;21.73;20.50;;;;;;;20.84;30.04;100452.28;5024727;28;20057;-77
2021/05/12 08:06:31;;;;;;;22.83;21.55;;;;;;;20.79;28.89;100443.13;5024135;28;20049;-77
2021/05/12 08:08:58;;;;;;;22.45;21.15;;;;;;;20.90;29.68;100449.25;5022129;28;20053;-77
2021/05/12 08:11:24;;;;;;;21.70;20.50;;;;;;;21.30;28.85;100444.59;5030351;28;20057;-77
2021/05/12 08:13:51;;;;;;;21.20;20.00;;;;;;;21.34;26.83;100442.16;5021279;28;20052;-77
2021/05/12 08:16:18;;;;;;;22.38;20.98;;;;;;;21.23;28.17;100436.03;5022530;28;20054;-77
2021/05/12 08:18:44;;;;;;;23.00;21.70;;;;;;;21.42;28.38;100437.00;5028558;28;20132;-77
2021/05/12 08:21:11;;;;;;;23.55;22.38;;;;;;;20.74;46.26;100428.88;5026227;28;20061;-77
2021/05/12 08:23:37;;;;;;;21.70;20.60;;;;;;;21.28;29.24;100420.59;5026787;28;20060;-78
2021/05/12 08:26:03;;;;;;;22.88;21.77;;;;;;;21.29;31.91;100418.69;5052298;28;20041;-78
2021/05/12 08:28:30;;;;;;;24.00;22.70;;;;;;;21.89;27.50;100416.47;5030762;28;20053;-77
2021/05/12 08:30:57;;;;;;;25.52;24.05;;;;;;;21.72;24.13;100416.13;5026424;28;20466;-78
2021/05/12 08:33:24;;;;;;;24.88;23.58;;;;;;;21.94;24.47;100410.22;5027832;28;20081;-77
2021/05/12 08:35:52;;;;;;;25.38;24.08;;;;;;;22.00;26.27;100398.25;5031118;28;20041;-77
2021/05/12 08:38:21;;;;;;;27.13;25.83;;;;;;;21.35;27.81;100397.84;5031619;28;20045;-77
2021/05/12 08:40:48;;;;;;;24.67;23.42;;;;;;;21.87;28.88;100399.72;5020884;28;20537;-76
2021/05/12 08:43:15;;;;;;;24.60;23.40;;;;;;;22.49;23.96;100390.84;5030046;28;20045;-77
2021/05/12 08:45:44;;;;;;;24.30;23.00;;;;;;;22.03;31.15;100394.13;5032240;28;20417;-77
2021/05/12 08:48:15;;;;;;;22.60;21.30;;;;;;;22.44;27.25;100386.28;5032802;28;20049;-77
2021/05/12 08:50:42;;;;;;;23.55;22.05;;;;;;;21.99;27.31;100382.28;5032503;28;20077;-77
2021/05/12 08:53:09;;;;;;;25.98;24.48;;;;;;;22.27;26.27;100381.41;5031860;28;20125;-77
2021/05/12 08:55:36;;;;;;;22.85;21.58;;;;;;;22.85;23.62;100369.44;5037007;28;20398;-77
2021/05/12 08:58:03;;;;;;;26.30;24.65;;;;;;;22.95;21.06;100380.13;5028853;28;20049;-77
2021/05/12 09:00:31;;;;;;;25.40;23.80;;;;;;;22.10;29.40;100364.84;5033246;28;20452;-77
2021/05/12 09:02:59;;;;;;;23.80;22.20;;;;;;;22.85;25.10;100370.22;5033133;28;20049;-78
2021/05/12 09:05:28;;;;;;;23.60;22.00;;;;;;;23.13;20.99;100361.41;5025472;28;20049;-77
2021/05/12 09:07:55;;;;;;;23.10;21.67;;;;;;;23.39;20.70;100367.97;5039403;28;20053;-78
2021/05/12 09:10:23;;;;;;;24.67;23.27;;;;;;;23.10;18.57;100349.25;5020033;28;20123;-77
2021/05/12 09:12:53;;;;;;;22.83;21.52;;;;;;;23.37;23.31;100353.09;5037661;28;20124;-76
2021/05/12 09:15:21;;;;;;;23.10;21.90;;;;;;;23.61;19.16;100358.34;5038733;28;20045;-76
2021/05/12 09:17:49;;;;;;;22.55;21.23;;;;;;;23.40;17.84;100357.94;5022731;28;20080;-77
2021/05/12 09:20:34;;;;;;;23.73;22.23;;;;;;;23.52;18.74;100348.19;5027985;28;20053;-76
2021/05/12 09:23:13;;;;;;;22.45;21.30;;;;;;;23.73;22.41;100351.31;5029190;28;20045;-76
2021/05/12 09:25:41;;;;;;;26.92;25.45;;;;;;;23.21;22.75;100350.69;5021839;28;20049;-76
2021/05/12 09:28:12;;;;;;;24.77;23.40;;;;;;;23.44;21.10;100345.38;5026745;28;20486;-77
2021/05/12 09:30:39;;;;;;;24.40;23.00;;;;;;;22.31;29.21;100351.88;5028487;28;20058;-76
2021/05/12 09:33:07;;;;;;;23.92;22.63;;;;;;;23.53;20.87;100343.56;5033125;28;20053;-76
2021/05/12 09:35:40;;;;;;;23.52;22.13;;;;;;;23.35;20.43;100342.56;5034955;28;20486;-76
2021/05/12 09:38:18;;;;;;;25.25;23.77;;;;;;;23.46;21.92;100333.13;5022905;28;20056;-76
2021/05/12 09:40:44;;;;;;;22.63;21.40;;;;;;;24.24;21.07;100333.16;5023687;28;20078;-76
2021/05/12 09:43:12;;;;;;;24.13;22.73;;;;;;;23.93;22.67;100328.41;5027231;28;20037;-77
2021/05/12 09:45:39;;;;;;;22.45;21.15;;;;;;;24.13;17.63;100329.06;5026608;28;20053;-76
2021/05/12 09:48:06;;;;;;;23.40;21.92;;;;;;;24.04;18.82;100320.84;5020156;28;20053;-77
2021/05/12 09:50:37;;;;;;;21.75;20.45;;;;;;;24.27;20.63;100315.44;5025017;28;20045;-76
2021/05/12 09:53:04;;;;;;;22.17;20.95;;;;;;;24.05;18.28;100321.63;5020892;28;20050;-76
2021/05/12 09:55:34;;;;;;;22.90;21.45;;;;;;;24.36;18.51;100314.41;5031760;28;20053;-77
2021/05/12 09:58:01;;;;;;;23.60;22.40;;;;;;;24.19;20.14;100306.13;5027069;28;20478;-77
2021/05/12 10:00:29;;;;;;;21.65;20.38;;;;;;;24.50;18.38;100316.28;5031683;28;20064;-77
2021/05/12 10:02:56;;;;;;;21.80;20.50;;;;;;;23.90;20.28;100301.06;5020537;28;20038;-77
2021/05/12 10:05:23;;;;;;;21.02;19.50;;;;;;;24.48;17.16;100308.47;5019140;28;20506;-77
2021/05/12 10:07:52;;;;;;;20.80;19.50;;;;;;;24.19;17.70;100293.34;5022121;28;20046;-77
2021/05/12 10:10:39;;;;;;;23.00;21.42;;;;;;;24.47;20.25;100300.63;5019643;28;20056;-77
2021/05/12 10:13:05;;;;;;;21.38;20.08;;;;;;;23.97;19.87;100293.34;5031767;28;20509;-76
2021/05/12 10:15:32;;;;;;;22.10;20.75;;;;;;;23.90;24.33;100288.31;5034314;28;20057;-77
2021/05/12 10:17:58;;;;;;;20.83;19.63;;;;;;;25.10;16.41;100284.03;5026142;28;20050;-77
2021/05/12 10:20:25;;;;;;;20.55;19.55;;;;;;;25.30;15.70;100285.41;5022231;28;20058;-76
2021/05/12 10:22:53;;;;;;;20.80;19.67;;;;;;;24.92;17.54;100283.16;5026558;28;20045;-76
2021/05/12 10:25:19;;;;;;;23.08;21.90;;;;;;;24.96;18.17;100291.47;5056134;28;20052;-77
2021/05/12 10:27:49;;;;;;;20.25;19.25;;;;;;;24.91;16.62;100286.19;5042879;28;20049;-76
2021/05/12 10:30:17;;;;;;;21.48;20.00;;;;;;;24.65;20.34;100283.31;5036400;28;20041;-76
2021/05/12 10:32:48;;;;;;;21.23;20.13;;;;;;;24.26;24.37;100284.78;5037014;28;20049;-76
2021/05/12 10:35:15;;;;;;;20.40;19.30;;;;;;;25.40;16.32;100283.53;5039449;28;20063;-76
2021/05/12 10:37:43;;;;;;;22.33;21.23;;;;;;;24.91;17.45;100270.69;5032324;28;20041;-76
2021/05/12 10:40:19;;;;;;;22.65;21.40;;;;;;;25.20;18.98;100277.53;5047056;28;20063;-76
2021/05/12 10:43:01;;;;;;;21.38;20.27;;;;;;;24.78;20.59;100277.03;5039896;28;20375;-76
2021/05/12 10:45:55;;;;;;;22.25;20.60;;;;;;;25.11;18.65;100276.66;5037353;28;20053;-77
2021/05/12 10:48:44;;;;;;;21.15;19.83;;;;;;;25.34;16.41;100264.63;5033983;28;20041;-75
2021/05/12 10:51:30;;;;;;;20.70;19.50;;;;;;;25.29;21.34;100274.84;5021989;28;20054;-75
2021/05/12 10:53:58;;;;;;;20.55;19.35;;;;;;;25.51;16.67;100279.41;5029952;28;20085;-78
2021/05/12 10:56:34;;;;;;;21.88;20.67;;;;;;;25.01;18.00;100271.53;5028137;28;20053;-76
2021/05/12 10:59:01;;;;;;;24.83;23.58;;;;;;;25.90;17.32;100267.66;5028568;28;20050;-76
2021/05/12 11:01:34;;;;;;;23.05;21.83;;;;;;;26.17;17.92;100269.25;5027794;28;20489;-76
2021/05/12 11:04:11;;;;;;;22.02;20.92;;;;;;;25.89;15.70;100268.75;5032165;28;20471;-76
2021/05/12 11:06:59;;;;;;;22.60;21.38;;;;;;;25.84;16.96;100270.81;5021701;28;20566;-76
2021/05/12 11:09:46;;;;;;;24.35;23.08;;;;;;;26.02;17.51;100258.81;5021072;28;20058;-76
2021/05/12 11:12:23;;;;;;;21.75;20.55;;;;;;;25.58;20.32;100269.66;5020930;28;20050;-76